sensor_id;sensor_type;location;lat;lon;timestamp;temperature;humidity
27540;DHT22;15906;52.046;4.724;2023-12-14T00:00:10;6.00;99.90
27540;DHT22;15906;52.046;4.724;2023-12-14T00:02:35;6.10;99.90
27540;DHT22;15906;52.046;4.724;2023-12-14T00:05:01;6.20;99.90
27540;DHT22;15906;52.046;4.724;2023-12-14T00:07:26;6.10;99.90
27540;DHT22;15906;52.046;4.724;2023-12-14T00:09:52;6.10;99.90
27540;DHT22;15906;52.046;4.724;2023-12-14T00:12:18;6.10;99.90
27540;DHT22;15906;52.046;4.724;2023-12-14T00:14:43;6.10;99.90
27540;DHT22;15906;52.046;4.724;2023-12-14T00:17:09;6.10;99.90
27540;DHT22;15906;52.046;4.724;2023-12-14T00:19:34;6.00;99.90
27540;DHT22;15906;52.046;4.724;2023-12-14T00:22:00;6.10;99.90
27540;DHT22;15906;52.046;4.724;2023-12-14T00:24:25;6.00;99.90
27540;DHT22;15906;52.046;4.724;2023-12-14T00:26:51;6.10;99.90
27540;DHT22;15906;52.046;4.724;2023-12-14T00:29:16;6.10;99.90
27540;DHT22;15906;52.046;4.724;2023-12-14T00:31:42;6.10;99.90
27540;DHT22;15906;52.046;4.724;2023-12-14T00:34:07;6.10;99.90
27540;DHT22;15906;52.046;4.724;2023-12-14T00:36:33;6.10;99.90
27540;DHT22;15906;52.046;4.724;2023-12-14T00:38:58;6.20;99.90
27540;DHT22;15906;52.046;4.724;2023-12-14T00:41:24;6.10;99.90
27540;DHT22;15906;52.046;4.724;2023-12-14T00:43:50;6.10;99.90
27540;DHT22;15906;52.046;4.724;2023-12-14T00:46:15;6.10;99.90
27540;DHT22;15906;52.046;4.724;2023-12-14T00:48:41;6.10;99.90
27540;DHT22;15906;52.046;4.724;2023-12-14T00:51:06;6.00;99.90
27540;DHT22;15906;52.046;4.724;2023-12-14T00:53:32;6.10;99.90
27540;DHT22;15906;52.046;4.724;2023-12-14T00:55:58;6.00;99.90
27540;DHT22;15906;52.046;4.724;2023-12-14T00:58:23;6.00;99.90
27540;DHT22;15906;52.046;4.724;2023-12-14T01:00:49;6.00;99.90
27540;DHT22;15906;52.046;4.724;2023-12-14T01:03:14;6.00;99.90
27540;DHT22;15906;52.046;4.724;2023-12-14T01:05:40;6.00;99.90
27540;DHT22;15906;52.046;4.724;2023-12-14T01:08:05;6.00;99.90
27540;DHT22;15906;52.046;4.724;2023-12-14T01:10:31;6.00;99.90
27540;DHT22;15906;52.046;4.724;2023-12-14T01:12:58;6.00;99.90
27540;DHT22;15906;52.046;4.724;2023-12-14T01:15:23;6.00;99.90
27540;DHT22;15906;52.046;4.724;2023-12-14T01:17:49;6.00;99.90
27540;DHT22;15906;52.046;4.724;2023-12-14T01:20:14;6.00;99.90
27540;DHT22;15906;52.046;4.724;2023-12-14T01:22:40;6.00;99.90
27540;DHT22;15906;52.046;4.724;2023-12-14T01:25:05;6.00;99.90
27540;DHT22;15906;52.046;4.724;2023-12-14T01:27:31;6.00;99.90
27540;DHT22;15906;52.046;4.724;2023-12-14T01:29:56;6.00;99.90
27540;DHT22;15906;52.046;4.724;2023-12-14T01:32:22;6.00;99.90
27540;DHT22;15906;52.046;4.724;2023-12-14T01:34:48;6.00;99.90
27540;DHT22;15906;52.046;4.724;2023-12-14T01:37:13;5.90;99.90
27540;DHT22;15906;52.046;4.724;2023-12-14T01:39:39;6.00;99.90
27540;DHT22;15906;52.046;4.724;2023-12-14T01:42:04;6.10;99.90
27540;DHT22;15906;52.046;4.724;2023-12-14T01:44:30;6.00;99.90
27540;DHT22;15906;52.046;4.724;2023-12-14T01:46:55;6.00;99.90
27540;DHT22;15906;52.046;4.724;2023-12-14T01:49:21;5.90;99.90
27540;DHT22;15906;52.046;4.724;2023-12-14T01:51:47;6.00;99.90
27540;DHT22;15906;52.046;4.724;2023-12-14T01:54:12;5.90;99.90
27540;DHT22;15906;52.046;4.724;2023-12-14T01:56:38;5.90;99.90
27540;DHT22;15906;52.046;4.724;2023-12-14T01:59:03;6.00;99.90
27540;DHT22;15906;52.046;4.724;2023-12-14T02:01:38;6.00;99.90
27540;DHT22;15906;52.046;4.724;2023-12-14T02:04:05;6.00;99.90
27540;DHT22;15906;52.046;4.724;2023-12-14T02:06:32;6.00;99.90
27540;DHT22;15906;52.046;4.724;2023-12-14T02:08:58;5.90;99.90
27540;DHT22;15906;52.046;4.724;2023-12-14T02:11:23;5.90;99.90
27540;DHT22;15906;52.046;4.724;2023-12-14T02:13:49;5.90;99.90
27540;DHT22;15906;52.046;4.724;2023-12-14T02:16:14;5.90;99.90
27540;DHT22;15906;52.046;4.724;2023-12-14T02:18:41;5.90;99.90
27540;DHT22;15906;52.046;4.724;2023-12-14T02:21:06;5.90;99.90
27540;DHT22;15906;52.046;4.724;2023-12-14T02:23:32;5.90;99.90
27540;DHT22;15906;52.046;4.724;2023-12-14T02:25:58;5.80;99.90
27540;DHT22;15906;52.046;4.724;2023-12-14T02:28:24;5.90;99.90
27540;DHT22;15906;52.046;4.724;2023-12-14T02:30:49;5.90;99.90
27540;DHT22;15906;52.046;4.724;2023-12-14T02:33:15;5.90;99.90
27540;DHT22;15906;52.046;4.724;2023-12-14T02:35:41;5.90;99.90
27540;DHT22;15906;52.046;4.724;2023-12-14T02:38:06;5.90;99.90
27540;DHT22;15906;52.046;4.724;2023-12-14T02:40:32;5.90;99.90
27540;DHT22;15906;52.046;4.724;2023-12-14T02:42:57;5.90;99.90
27540;DHT22;15906;52.046;4.724;2023-12-14T02:45:23;5.80;99.90
27540;DHT22;15906;52.046;4.724;2023-12-14T02:47:48;5.80;99.90
27540;DHT22;15906;52.046;4.724;2023-12-14T02:50:15;5.90;99.90
27540;DHT22;15906;52.046;4.724;2023-12-14T02:52:40;5.80;99.90
27540;DHT22;15906;52.046;4.724;2023-12-14T02:55:06;5.90;99.90
27540;DHT22;15906;52.046;4.724;2023-12-14T02:57:32;5.90;99.90
27540;DHT22;15906;52.046;4.724;2023-12-14T02:59:57;5.80;99.90
27540;DHT22;15906;52.046;4.724;2023-12-14T03:02:23;5.80;99.90
27540;DHT22;15906;52.046;4.724;2023-12-14T03:04:48;5.90;99.90
27540;DHT22;15906;52.046;4.724;2023-12-14T03:07:14;5.90;99.90
27540;DHT22;15906;52.046;4.724;2023-12-14T03:09:40;5.80;99.90
27540;DHT22;15906;52.046;4.724;2023-12-14T03:12:10;5.90;99.90
27540;DHT22;15906;52.046;4.724;2023-12-14T03:14:36;6.00;99.90
27540;DHT22;15906;52.046;4.724;2023-12-14T03:17:02;5.90;99.90
27540;DHT22;15906;52.046;4.724;2023-12-14T03:19:28;5.90;99.90
27540;DHT22;15906;52.046;4.724;2023-12-14T03:21:54;5.90;99.90
27540;DHT22;15906;52.046;4.724;2023-12-14T03:24:20;5.90;99.90
27540;DHT22;15906;52.046;4.724;2023-12-14T03:26:45;5.80;99.90
27540;DHT22;15906;52.046;4.724;2023-12-14T03:29:11;5.90;99.90
27540;DHT22;15906;52.046;4.724;2023-12-14T03:31:36;5.80;99.90
27540;DHT22;15906;52.046;4.724;2023-12-14T03:34:02;5.70;99.90
27540;DHT22;15906;52.046;4.724;2023-12-14T03:36:28;5.80;99.90
27540;DHT22;15906;52.046;4.724;2023-12-14T03:38:54;5.80;99.90
27540;DHT22;15906;52.046;4.724;2023-12-14T03:41:19;5.70;99.90
27540;DHT22;15906;52.046;4.724;2023-12-14T03:43:45;5.90;99.90
27540;DHT22;15906;52.046;4.724;2023-12-14T03:46:11;5.80;99.90
27540;DHT22;15906;52.046;4.724;2023-12-14T03:48:36;5.80;99.90
27540;DHT22;15906;52.046;4.724;2023-12-14T03:51:05;5.70;99.90
27540;DHT22;15906;52.046;4.724;2023-12-14T03:53:31;5.80;99.90
27540;DHT22;15906;52.046;4.724;2023-12-14T03:55:58;5.80;99.90
27540;DHT22;15906;52.046;4.724;2023-12-14T03:58:23;5.80;99.90
27540;DHT22;15906;52.046;4.724;2023-12-14T04:00:49;5.80;99.90
27540;DHT22;15906;52.046;4.724;2023-12-14T04:03:14;5.60;99.90
27540;DHT22;15906;52.046;4.724;2023-12-14T04:05:40;5.70;99.90
27540;DHT22;15906;52.046;4.724;2023-12-14T04:08:05;5.70;99.90
27540;DHT22;15906;52.046;4.724;2023-12-14T04:10:31;5.70;99.90
27540;DHT22;15906;52.046;4.724;2023-12-14T04:12:56;5.70;99.90
27540;DHT22;15906;52.046;4.724;2023-12-14T04:15:22;5.70;99.90
27540;DHT22;15906;52.046;4.724;2023-12-14T04:17:47;5.70;99.90
27540;DHT22;15906;52.046;4.724;2023-12-14T04:20:13;5.70;99.90
27540;DHT22;15906;52.046;4.724;2023-12-14T04:22:43;5.60;99.90
27540;DHT22;15906;52.046;4.724;2023-12-14T04:25:10;5.80;99.90
27540;DHT22;15906;52.046;4.724;2023-12-14T04:27:35;5.70;99.90
27540;DHT22;15906;52.046;4.724;2023-12-14T04:30:01;5.60;99.90
27540;DHT22;15906;52.046;4.724;2023-12-14T04:32:27;5.60;99.90
27540;DHT22;15906;52.046;4.724;2023-12-14T04:34:52;5.60;99.90
27540;DHT22;15906;52.046;4.724;2023-12-14T04:37:18;5.60;99.90
27540;DHT22;15906;52.046;4.724;2023-12-14T04:39:43;5.60;99.90
27540;DHT22;15906;52.046;4.724;2023-12-14T04:42:09;5.60;99.90
27540;DHT22;15906;52.046;4.724;2023-12-14T04:44:35;5.70;99.90
27540;DHT22;15906;52.046;4.724;2023-12-14T04:47:00;5.60;99.90
27540;DHT22;15906;52.046;4.724;2023-12-14T04:49:26;5.60;99.90
27540;DHT22;15906;52.046;4.724;2023-12-14T04:51:51;5.60;99.90
27540;DHT22;15906;52.046;4.724;2023-12-14T04:54:17;5.60;99.90
27540;DHT22;15906;52.046;4.724;2023-12-14T04:56:45;5.60;99.90
27540;DHT22;15906;52.046;4.724;2023-12-14T04:59:11;5.60;99.90
27540;DHT22;15906;52.046;4.724;2023-12-14T05:01:37;5.50;99.90
27540;DHT22;15906;52.046;4.724;2023-12-14T05:04:02;5.50;99.90
27540;DHT22;15906;52.046;4.724;2023-12-14T05:06:28;5.50;99.90
27540;DHT22;15906;52.046;4.724;2023-12-14T05:08:54;5.50;99.90
27540;DHT22;15906;52.046;4.724;2023-12-14T05:11:20;5.50;99.90
27540;DHT22;15906;52.046;4.724;2023-12-14T05:13:45;5.50;99.90
27540;DHT22;15906;52.046;4.724;2023-12-14T05:16:14;5.50;99.90
27540;DHT22;15906;52.046;4.724;2023-12-14T05:18:40;5.50;99.90
27540;DHT22;15906;52.046;4.724;2023-12-14T05:21:05;5.50;99.90
27540;DHT22;15906;52.046;4.724;2023-12-14T05:23:31;5.50;99.90
27540;DHT22;15906;52.046;4.724;2023-12-14T05:25:57;5.50;99.90
27540;DHT22;15906;52.046;4.724;2023-12-14T05:28:22;5.50;99.90
27540;DHT22;15906;52.046;4.724;2023-12-14T05:30:48;5.40;99.90
27540;DHT22;15906;52.046;4.724;2023-12-14T05:33:14;5.40;99.90
27540;DHT22;15906;52.046;4.724;2023-12-14T05:35:40;5.40;99.90
27540;DHT22;15906;52.046;4.724;2023-12-14T05:38:05;5.40;99.90
27540;DHT22;15906;52.046;4.724;2023-12-14T05:40:31;5.30;99.90
27540;DHT22;15906;52.046;4.724;2023-12-14T05:42:57;5.40;99.90
27540;DHT22;15906;52.046;4.724;2023-12-14T05:45:22;5.40;99.90
27540;DHT22;15906;52.046;4.724;2023-12-14T05:47:48;5.30;99.90
27540;DHT22;15906;52.046;4.724;2023-12-14T05:50:14;5.40;99.90
27540;DHT22;15906;52.046;4.724;2023-12-14T05:52:39;5.30;99.90
27540;DHT22;15906;52.046;4.724;2023-12-14T05:55:09;5.30;99.90
27540;DHT22;15906;52.046;4.724;2023-12-14T05:57:37;5.30;99.90
27540;DHT22;15906;52.046;4.724;2023-12-14T06:00:05;5.30;99.90
27540;DHT22;15906;52.046;4.724;2023-12-14T06:02:31;5.30;99.90
27540;DHT22;15906;52.046;4.724;2023-12-14T06:04:57;5.30;99.90
27540;DHT22;15906;52.046;4.724;2023-12-14T06:07:23;5.30;99.90
27540;DHT22;15906;52.046;4.724;2023-12-14T06:09:49;5.20;99.90
27540;DHT22;15906;52.046;4.724;2023-12-14T06:12:14;5.20;99.90
27540;DHT22;15906;52.046;4.724;2023-12-14T06:14:40;5.20;99.90
27540;DHT22;15906;52.046;4.724;2023-12-14T06:17:05;5.20;99.90
27540;DHT22;15906;52.046;4.724;2023-12-14T06:19:31;5.30;99.90
27540;DHT22;15906;52.046;4.724;2023-12-14T06:21:57;5.20;99.90
27540;DHT22;15906;52.046;4.724;2023-12-14T06:24:23;5.30;99.90
27540;DHT22;15906;52.046;4.724;2023-12-14T06:26:49;5.30;99.90
27540;DHT22;15906;52.046;4.724;2023-12-14T06:29:14;5.20;99.90
27540;DHT22;15906;52.046;4.724;2023-12-14T06:31:40;5.30;99.90
27540;DHT22;15906;52.046;4.724;2023-12-14T06:34:06;5.30;99.90
27540;DHT22;15906;52.046;4.724;2023-12-14T06:36:32;5.20;99.90
27540;DHT22;15906;52.046;4.724;2023-12-14T06:38:59;5.20;99.90
27540;DHT22;15906;52.046;4.724;2023-12-14T06:41:26;5.20;99.90
27540;DHT22;15906;52.046;4.724;2023-12-14T06:43:52;5.20;99.90
27540;DHT22;15906;52.046;4.724;2023-12-14T06:46:18;5.20;99.90
27540;DHT22;15906;52.046;4.724;2023-12-14T06:48:44;5.20;99.90
27540;DHT22;15906;52.046;4.724;2023-12-14T06:51:09;5.20;99.90
27540;DHT22;15906;52.046;4.724;2023-12-14T06:53:35;5.30;99.90
27540;DHT22;15906;52.046;4.724;2023-12-14T06:56:03;5.20;99.90
27540;DHT22;15906;52.046;4.724;2023-12-14T06:58:29;5.20;99.90
27540;DHT22;15906;52.046;4.724;2023-12-14T07:00:54;5.10;99.90
27540;DHT22;15906;52.046;4.724;2023-12-14T07:03:20;5.20;99.90
27540;DHT22;15906;52.046;4.724;2023-12-14T07:05:45;5.10;99.90
27540;DHT22;15906;52.046;4.724;2023-12-14T07:08:11;5.10;99.90
27540;DHT22;15906;52.046;4.724;2023-12-14T07:10:36;5.10;99.90
27540;DHT22;15906;52.046;4.724;2023-12-14T07:13:02;5.10;99.90
27540;DHT22;15906;52.046;4.724;2023-12-14T07:15:27;5.10;99.90
27540;DHT22;15906;52.046;4.724;2023-12-14T07:17:53;5.10;99.90
27540;DHT22;15906;52.046;4.724;2023-12-14T07:20:18;5.10;99.90
27540;DHT22;15906;52.046;4.724;2023-12-14T07:22:44;5.10;99.90
27540;DHT22;15906;52.046;4.724;2023-12-14T07:25:10;5.10;99.90
27540;DHT22;15906;52.046;4.724;2023-12-14T07:27:35;5.20;99.90
27540;DHT22;15906;52.046;4.724;2023-12-14T07:30:01;5.10;99.90
27540;DHT22;15906;52.046;4.724;2023-12-14T07:32:26;5.10;99.90
27540;DHT22;15906;52.046;4.724;2023-12-14T07:34:52;5.10;99.90
27540;DHT22;15906;52.046;4.724;2023-12-14T07:37:18;5.20;99.90
27540;DHT22;15906;52.046;4.724;2023-12-14T07:39:43;5.10;99.90
27540;DHT22;15906;52.046;4.724;2023-12-14T07:42:09;5.10;99.90
27540;DHT22;15906;52.046;4.724;2023-12-14T07:44:35;5.20;99.90
27540;DHT22;15906;52.046;4.724;2023-12-14T07:47:01;5.20;99.90
27540;DHT22;15906;52.046;4.724;2023-12-14T07:49:26;5.10;99.90
27540;DHT22;15906;52.046;4.724;2023-12-14T07:51:52;5.20;99.90
27540;DHT22;15906;52.046;4.724;2023-12-14T07:54:18;5.20;99.90
27540;DHT22;15906;52.046;4.724;2023-12-14T07:56:46;5.20;99.90
27540;DHT22;15906;52.046;4.724;2023-12-14T07:59:12;5.20;99.90
27540;DHT22;15906;52.046;4.724;2023-12-14T08:01:38;5.20;99.90
27540;DHT22;15906;52.046;4.724;2023-12-14T08:04:04;5.20;99.90
27540;DHT22;15906;52.046;4.724;2023-12-14T08:06:29;5.20;99.90
27540;DHT22;15906;52.046;4.724;2023-12-14T08:08:56;5.10;99.90
27540;DHT22;15906;52.046;4.724;2023-12-14T08:11:24;5.10;99.90
27540;DHT22;15906;52.046;4.724;2023-12-14T08:13:49;5.10;99.90
27540;DHT22;15906;52.046;4.724;2023-12-14T08:16:15;5.00;99.90
27540;DHT22;15906;52.046;4.724;2023-12-14T08:18:43;5.00;99.90
27540;DHT22;15906;52.046;4.724;2023-12-14T08:21:10;5.00;99.90
27540;DHT22;15906;52.046;4.724;2023-12-14T08:23:35;4.90;99.90
27540;DHT22;15906;52.046;4.724;2023-12-14T08:26:01;4.90;99.90
27540;DHT22;15906;52.046;4.724;2023-12-14T08:28:27;4.90;99.90
27540;DHT22;15906;52.046;4.724;2023-12-14T08:30:52;4.90;99.90
27540;DHT22;15906;52.046;4.724;2023-12-14T08:33:18;4.80;99.90
27540;DHT22;15906;52.046;4.724;2023-12-14T08:35:43;4.80;99.90
27540;DHT22;15906;52.046;4.724;2023-12-14T08:38:09;4.90;99.90
27540;DHT22;15906;52.046;4.724;2023-12-14T08:40:35;4.80;99.90
27540;DHT22;15906;52.046;4.724;2023-12-14T08:43:01;4.90;99.90
27540;DHT22;15906;52.046;4.724;2023-12-14T08:45:27;4.90;99.90
27540;DHT22;15906;52.046;4.724;2023-12-14T08:47:53;5.00;99.90
27540;DHT22;15906;52.046;4.724;2023-12-14T08:50:19;5.00;99.90
27540;DHT22;15906;52.046;4.724;2023-12-14T08:52:44;5.10;99.90
27540;DHT22;15906;52.046;4.724;2023-12-14T08:55:10;5.10;99.90
27540;DHT22;15906;52.046;4.724;2023-12-14T08:57:35;5.20;99.90
27540;DHT22;15906;52.046;4.724;2023-12-14T09:00:02;5.30;99.90
27540;DHT22;15906;52.046;4.724;2023-12-14T09:02:30;5.40;99.90
27540;DHT22;15906;52.046;4.724;2023-12-14T09:04:55;5.50;99.90
27540;DHT22;15906;52.046;4.724;2023-12-14T09:07:21;5.60;99.90
27540;DHT22;15906;52.046;4.724;2023-12-14T09:09:46;5.70;99.90
27540;DHT22;15906;52.046;4.724;2023-12-14T09:12:12;5.80;99.90
27540;DHT22;15906;52.046;4.724;2023-12-14T09:14:37;5.80;99.90
27540;DHT22;15906;52.046;4.724;2023-12-14T09:17:03;5.90;99.90
27540;DHT22;15906;52.046;4.724;2023-12-14T09:19:32;6.00;99.90
27540;DHT22;15906;52.046;4.724;2023-12-14T09:21:58;6.00;99.90
27540;DHT22;15906;52.046;4.724;2023-12-14T09:24:23;6.00;99.90
27540;DHT22;15906;52.046;4.724;2023-12-14T09:26:49;6.10;99.90
27540;DHT22;15906;52.046;4.724;2023-12-14T09:29:15;6.00;99.90
27540;DHT22;15906;52.046;4.724;2023-12-14T09:31:41;6.00;99.90
27540;DHT22;15906;52.046;4.724;2023-12-14T09:34:08;6.10;99.90
27540;DHT22;15906;52.046;4.724;2023-12-14T09:36:34;6.10;99.90
27540;DHT22;15906;52.046;4.724;2023-12-14T09:38:59;6.10;99.90
27540;DHT22;15906;52.046;4.724;2023-12-14T09:41:25;6.10;99.90
27540;DHT22;15906;52.046;4.724;2023-12-14T09:43:51;6.10;99.90
27540;DHT22;15906;52.046;4.724;2023-12-14T09:46:17;6.10;99.90
27540;DHT22;15906;52.046;4.724;2023-12-14T09:48:44;6.10;99.90
27540;DHT22;15906;52.046;4.724;2023-12-14T09:51:11;6.10;99.90
27540;DHT22;15906;52.046;4.724;2023-12-14T09:53:37;6.10;99.90
27540;DHT22;15906;52.046;4.724;2023-12-14T09:56:03;6.20;99.90
27540;DHT22;15906;52.046;4.724;2023-12-14T09:58:31;6.20;99.90
27540;DHT22;15906;52.046;4.724;2023-12-14T10:00:58;6.20;99.90
27540;DHT22;15906;52.046;4.724;2023-12-14T10:03:27;6.10;99.90
27540;DHT22;15906;52.046;4.724;2023-12-14T10:05:57;6.20;99.90
27540;DHT22;15906;52.046;4.724;2023-12-14T10:08:23;6.20;99.90
27540;DHT22;15906;52.046;4.724;2023-12-14T10:10:51;6.10;99.90
27540;DHT22;15906;52.046;4.724;2023-12-14T10:13:19;6.20;99.90
27540;DHT22;15906;52.046;4.724;2023-12-14T10:15:48;6.20;99.90
27540;DHT22;15906;52.046;4.724;2023-12-14T10:18:24;6.20;99.90
27540;DHT22;15906;52.046;4.724;2023-12-14T10:20:53;6.30;99.90
27540;DHT22;15906;52.046;4.724;2023-12-14T10:23:19;6.30;99.90
27540;DHT22;15906;52.046;4.724;2023-12-14T10:25:46;6.30;99.90
27540;DHT22;15906;52.046;4.724;2023-12-14T10:28:12;6.40;99.90
27540;DHT22;15906;52.046;4.724;2023-12-14T10:30:39;6.50;99.90
27540;DHT22;15906;52.046;4.724;2023-12-14T10:33:04;6.60;99.90
27540;DHT22;15906;52.046;4.724;2023-12-14T10:35:30;6.70;99.90
27540;DHT22;15906;52.046;4.724;2023-12-14T10:38:00;6.70;99.90
27540;DHT22;15906;52.046;4.724;2023-12-14T10:40:27;6.90;99.90
27540;DHT22;15906;52.046;4.724;2023-12-14T10:42:55;7.00;99.90
27540;DHT22;15906;52.046;4.724;2023-12-14T10:45:26;7.00;99.90
27540;DHT22;15906;52.046;4.724;2023-12-14T10:47:53;7.10;99.90
27540;DHT22;15906;52.046;4.724;2023-12-14T10:50:20;7.20;99.90
27540;DHT22;15906;52.046;4.724;2023-12-14T10:52:46;7.40;99.90
27540;DHT22;15906;52.046;4.724;2023-12-14T10:58:24;7.70;99.90
27540;DHT22;15906;52.046;4.724;2023-12-14T11:00:59;7.90;99.90
27540;DHT22;15906;52.046;4.724;2023-12-14T11:03:33;8.00;99.90
27540;DHT22;15906;52.046;4.724;2023-12-14T11:06:00;8.00;99.90
27540;DHT22;15906;52.046;4.724;2023-12-14T11:08:26;8.10;99.90
27540;DHT22;15906;52.046;4.724;2023-12-14T11:11:03;7.90;99.90
27540;DHT22;15906;52.046;4.724;2023-12-14T11:13:35;7.70;99.90
27540;DHT22;15906;52.046;4.724;2023-12-14T11:16:04;7.60;99.90
27540;DHT22;15906;52.046;4.724;2023-12-14T11:18:29;7.50;99.90
27540;DHT22;15906;52.046;4.724;2023-12-14T11:21:00;7.30;99.90
27540;DHT22;15906;52.046;4.724;2023-12-14T11:25:53;7.30;99.90
27540;DHT22;15906;52.046;4.724;2023-12-14T11:28:19;7.20;99.90
27540;DHT22;15906;52.046;4.724;2023-12-14T11:30:46;7.20;99.90
27540;DHT22;15906;52.046;4.724;2023-12-14T11:33:13;7.20;99.90
27540;DHT22;15906;52.046;4.724;2023-12-14T11:35:39;7.30;99.90
27540;DHT22;15906;52.046;4.724;2023-12-14T11:38:05;7.30;99.90
27540;DHT22;15906;52.046;4.724;2023-12-14T11:40:44;7.40;99.90
27540;DHT22;15906;52.046;4.724;2023-12-14T11:43:09;7.30;99.90
27540;DHT22;15906;52.046;4.724;2023-12-14T11:45:36;7.30;99.90
27540;DHT22;15906;52.046;4.724;2023-12-14T11:48:03;7.30;99.90
27540;DHT22;15906;52.046;4.724;2023-12-14T11:50:32;7.30;99.90
27540;DHT22;15906;52.046;4.724;2023-12-14T11:52:59;7.30;99.90
27540;DHT22;15906;52.046;4.724;2023-12-14T11:55:26;7.30;99.90
27540;DHT22;15906;52.046;4.724;2023-12-14T11:57:52;7.30;99.90
27540;DHT22;15906;52.046;4.724;2023-12-14T12:00:22;7.30;99.90
27540;DHT22;15906;52.046;4.724;2023-12-14T12:02:48;7.30;99.90
27540;DHT22;15906;52.046;4.724;2023-12-14T12:05:13;7.40;99.90
27540;DHT22;15906;52.046;4.724;2023-12-14T12:07:46;7.40;99.90
27540;DHT22;15906;52.046;4.724;2023-12-14T12:10:12;7.40;99.90
27540;DHT22;15906;52.046;4.724;2023-12-14T12:12:38;7.30;99.90
27540;DHT22;15906;52.046;4.724;2023-12-14T12:15:04;7.30;99.90
27540;DHT22;15906;52.046;4.724;2023-12-14T12:17:30;7.20;99.90
27540;DHT22;15906;52.046;4.724;2023-12-14T12:20:04;7.30;99.90
27540;DHT22;15906;52.046;4.724;2023-12-14T12:22:30;7.10;99.90
27540;DHT22;15906;52.046;4.724;2023-12-14T12:24:55;7.00;99.90
27540;DHT22;15906;52.046;4.724;2023-12-14T12:27:22;7.10;99.90
27540;DHT22;15906;52.046;4.724;2023-12-14T12:29:48;7.10;99.90
27540;DHT22;15906;52.046;4.724;2023-12-14T12:32:14;7.10;99.90
27540;DHT22;15906;52.046;4.724;2023-12-14T12:34:39;7.00;99.90
27540;DHT22;15906;52.046;4.724;2023-12-14T12:37:05;7.10;99.90
27540;DHT22;15906;52.046;4.724;2023-12-14T12:39:30;7.10;99.90
27540;DHT22;15906;52.046;4.724;2023-12-14T12:41:56;7.00;99.90
27540;DHT22;15906;52.046;4.724;2023-12-14T12:44:21;7.10;99.90
27540;DHT22;15906;52.046;4.724;2023-12-14T12:46:47;7.00;99.90
27540;DHT22;15906;52.046;4.724;2023-12-14T12:49:12;7.00;99.90
27540;DHT22;15906;52.046;4.724;2023-12-14T12:51:38;6.90;99.90
27540;DHT22;15906;52.046;4.724;2023-12-14T12:54:03;7.00;99.90
27540;DHT22;15906;52.046;4.724;2023-12-14T12:56:29;7.00;99.90
27540;DHT22;15906;52.046;4.724;2023-12-14T12:58:55;7.00;99.90
27540;DHT22;15906;52.046;4.724;2023-12-14T13:01:21;6.90;99.90
27540;DHT22;15906;52.046;4.724;2023-12-14T13:03:54;6.90;99.90
27540;DHT22;15906;52.046;4.724;2023-12-14T13:06:21;6.90;99.90
27540;DHT22;15906;52.046;4.724;2023-12-14T13:08:47;6.90;99.90
27540;DHT22;15906;52.046;4.724;2023-12-14T13:11:13;6.90;99.90
27540;DHT22;15906;52.046;4.724;2023-12-14T13:13:40;7.00;99.90
27540;DHT22;15906;52.046;4.724;2023-12-14T13:16:05;7.00;99.90
27540;DHT22;15906;52.046;4.724;2023-12-14T13:18:31;7.00;99.90
27540;DHT22;15906;52.046;4.724;2023-12-14T13:20:56;7.00;99.90
27540;DHT22;15906;52.046;4.724;2023-12-14T13:23:22;7.00;99.90
27540;DHT22;15906;52.046;4.724;2023-12-14T13:25:48;7.00;99.90
27540;DHT22;15906;52.046;4.724;2023-12-14T13:28:14;7.10;99.90
27540;DHT22;15906;52.046;4.724;2023-12-14T13:30:39;7.00;99.90
27540;DHT22;15906;52.046;4.724;2023-12-14T13:33:06;7.00;99.90
27540;DHT22;15906;52.046;4.724;2023-12-14T13:35:34;7.10;99.90
27540;DHT22;15906;52.046;4.724;2023-12-14T13:38:00;7.10;99.90
27540;DHT22;15906;52.046;4.724;2023-12-14T13:40:26;7.00;99.90
27540;DHT22;15906;52.046;4.724;2023-12-14T13:42:51;7.00;99.90
27540;DHT22;15906;52.046;4.724;2023-12-14T13:45:18;7.00;99.90
27540;DHT22;15906;52.046;4.724;2023-12-14T13:47:44;7.00;99.90
27540;DHT22;15906;52.046;4.724;2023-12-14T13:50:09;7.00;99.90
27540;DHT22;15906;52.046;4.724;2023-12-14T13:52:35;7.00;99.90
27540;DHT22;15906;52.046;4.724;2023-12-14T13:55:00;7.10;99.90
27540;DHT22;15906;52.046;4.724;2023-12-14T13:57:26;7.10;99.90
27540;DHT22;15906;52.046;4.724;2023-12-14T13:59:52;7.00;99.90
27540;DHT22;15906;52.046;4.724;2023-12-14T14:02:18;7.00;99.90
27540;DHT22;15906;52.046;4.724;2023-12-14T14:04:44;7.00;99.90
27540;DHT22;15906;52.046;4.724;2023-12-14T14:07:09;7.00;99.90
27540;DHT22;15906;52.046;4.724;2023-12-14T14:09:35;7.00;99.90
27540;DHT22;15906;52.046;4.724;2023-12-14T14:12:00;7.00;99.90
27540;DHT22;15906;52.046;4.724;2023-12-14T14:14:26;6.90;99.90
27540;DHT22;15906;52.046;4.724;2023-12-14T14:16:51;7.00;99.90
27540;DHT22;15906;52.046;4.724;2023-12-14T14:19:17;7.10;99.90
27540;DHT22;15906;52.046;4.724;2023-12-14T14:21:42;7.10;99.90
27540;DHT22;15906;52.046;4.724;2023-12-14T14:24:08;7.10;99.90
27540;DHT22;15906;52.046;4.724;2023-12-14T14:26:34;7.10;99.90
27540;DHT22;15906;52.046;4.724;2023-12-14T14:29:00;7.20;99.90
27540;DHT22;15906;52.046;4.724;2023-12-14T14:31:27;7.30;99.90
27540;DHT22;15906;52.046;4.724;2023-12-14T14:33:57;7.30;99.90
27540;DHT22;15906;52.046;4.724;2023-12-14T14:36:23;7.20;99.90
27540;DHT22;15906;52.046;4.724;2023-12-14T14:38:48;7.20;99.90
27540;DHT22;15906;52.046;4.724;2023-12-14T14:41:14;7.10;99.90
27540;DHT22;15906;52.046;4.724;2023-12-14T14:43:39;7.10;99.90
27540;DHT22;15906;52.046;4.724;2023-12-14T14:46:05;7.00;99.90
27540;DHT22;15906;52.046;4.724;2023-12-14T14:48:31;7.00;99.90
27540;DHT22;15906;52.046;4.724;2023-12-14T14:50:56;7.00;99.90
27540;DHT22;15906;52.046;4.724;2023-12-14T14:53:22;6.90;99.90
27540;DHT22;15906;52.046;4.724;2023-12-14T14:55:47;7.10;99.90
27540;DHT22;15906;52.046;4.724;2023-12-14T14:58:18;7.00;99.90
27540;DHT22;15906;52.046;4.724;2023-12-14T15:00:44;6.90;99.90
27540;DHT22;15906;52.046;4.724;2023-12-14T15:03:10;6.90;99.90
27540;DHT22;15906;52.046;4.724;2023-12-14T15:05:37;6.90;99.90
27540;DHT22;15906;52.046;4.724;2023-12-14T15:08:02;6.90;99.90
27540;DHT22;15906;52.046;4.724;2023-12-14T15:10:28;7.00;99.90
27540;DHT22;15906;52.046;4.724;2023-12-14T15:12:54;7.00;99.90
27540;DHT22;15906;52.046;4.724;2023-12-14T15:15:19;7.10;99.90
27540;DHT22;15906;52.046;4.724;2023-12-14T15:17:45;7.10;99.90
27540;DHT22;15906;52.046;4.724;2023-12-14T15:20:11;7.00;99.90
27540;DHT22;15906;52.046;4.724;2023-12-14T15:22:36;7.00;99.90
27540;DHT22;15906;52.046;4.724;2023-12-14T15:25:02;7.00;99.90
27540;DHT22;15906;52.046;4.724;2023-12-14T15:27:29;6.90;99.90
27540;DHT22;15906;52.046;4.724;2023-12-14T15:29:56;6.90;99.90
27540;DHT22;15906;52.046;4.724;2023-12-14T15:32:22;6.80;99.90
27540;DHT22;15906;52.046;4.724;2023-12-14T15:34:47;6.80;99.90
27540;DHT22;15906;52.046;4.724;2023-12-14T15:37:14;6.80;99.90
27540;DHT22;15906;52.046;4.724;2023-12-14T15:39:40;6.70;99.90
27540;DHT22;15906;52.046;4.724;2023-12-14T15:42:06;6.80;99.90